NCAR-RAP Real-Time Weather Data

Output produced by METARs form (12 May 2021  10:13 UTC)
found at http://weather.rap.ucar.edu/surface/
 
KATY 120953Z AUTO 12003KT 10SM CLR 03/M05 A3035 RMK AO2 SLP285 T00331050
KATY 120853Z AUTO 15004KT 10SM CLR 04/M05 A3034 RMK AO2 SLP284 T00391050 58001
KATY 120753Z AUTO 15006KT 10SM CLR 04/M05 A3035 RMK AO2 SLP284 T00441050
KATY 120653Z AUTO 15004KT 10SM CLR 04/M04 A3035 RMK AO2 SLP286 T00391039
KATY 120553Z AUTO 00000KT 10SM CLR 06/M04 A3035 RMK AO2 SLP286 T00561039 10150 20039 401611028 51004
KATY 120453Z AUTO 14003KT 10SM CLR 08/M04 A3035 RMK AO2 SLP284 T00781044
KATY 120353Z AUTO 10003KT 10SM CLR 10/M06 A3035 RMK AO2 SLP283 T01001056
KATY 120253Z AUTO 00000KT 10SM CLR 11/M04 A3034 RMK AO2 SLP280 T01061044 53011
KATY 120153Z AUTO 00000KT 10SM CLR 11/M04 A3032 RMK AO2 SLP275 T01061039
KATY 120053Z AUTO 31003KT 10SM CLR 14/M05 A3031 RMK AO2 SLP271 T01391050
KATY 112353Z AUTO 33005KT 10SM CLR 15/M06 A3030 RMK AO2 SLP272 T01501056 10161 20122 53000
KATY 112253Z AUTO 04003KT 10SM CLR 16/M07 A3030 RMK AO2 SLP271 T01561072
KATY 112153Z AUTO 31004KT 10SM CLR 16/M06 A3030 RMK AO2 SLP269 T01561056
KATY 112053Z AUTO VRB04KT 10SM CLR 15/M06 A3030 RMK AO2 SLP271 T01501061 56015
KATY 111953Z AUTO 10SM CLR 14/M05 A3031 RMK AO2 SLP273 T01441050